createdAt,value
2022-11-23T00:00:06.277Z,99673.19
2022-11-23T00:01:18.243Z,99671.92
2022-11-23T00:02:21.420Z,99678.02
2022-11-23T00:03:24.122Z,99680.36
2022-11-23T00:04:27.353Z,99678.41
2022-11-23T00:05:30.490Z,99686.67
2022-11-23T00:06:33.261Z,99678.48
2022-11-23T00:07:40.159Z,99684.28
2022-11-23T00:08:45.604Z,99690.66
2022-11-23T00:09:48.778Z,99698.39
2022-11-23T00:10:52.911Z,99698.57
2022-11-23T00:11:56.321Z,99703.08
2022-11-23T00:13:01.110Z,99702.05
2022-11-23T00:14:05.353Z,99709.38
2022-11-23T00:15:10.951Z,99700.96
2022-11-23T00:16:16.092Z,99698.34
2022-11-23T00:17:21.254Z,99704.77
2022-11-23T00:18:24.553Z,99704.31
2022-11-23T00:19:32.544Z,99696.05
2022-11-23T00:20:35.945Z,99709.55
2022-11-23T00:21:39.357Z,99708.29
2022-11-23T00:22:42.014Z,99704.02
2022-11-23T00:23:46.471Z,99703.17
2022-11-23T00:24:49.881Z,99698.52
2022-11-23T00:25:53.052Z,99701.94
2022-11-23T00:26:59.169Z,99695.55
2022-11-23T00:28:02.497Z,99689.13
2022-11-23T00:29:07.141Z,99693.58
2022-11-23T00:30:13.400Z,99697.60
2022-11-23T00:31:18.107Z,99695.56
2022-11-23T00:32:24.432Z,99694.80
2022-11-23T00:33:28.531Z,99694.01
2022-11-23T00:34:32.866Z,99692.88
2022-11-23T00:35:36.514Z,99686.79
2022-11-23T00:36:38.766Z,99693.27
2022-11-23T00:37:41.958Z,99690.72
2022-11-23T00:38:45.767Z,99692.81
2022-11-23T00:39:49.178Z,99687.81
2022-11-23T00:40:55.380Z,99699.52
2022-11-23T00:41:59.518Z,99686.05
2022-11-23T00:43:03.034Z,99697.05
2022-11-23T00:44:08.663Z,99687.36
2022-11-23T00:45:12.236Z,99701.38
2022-11-23T00:46:17.309Z,99697.54
2022-11-23T00:47:23.312Z,99698.91
2022-11-23T00:48:26.723Z,99698.23
2022-11-23T00:49:35.101Z,99688.61
2022-11-23T00:50:40.581Z,99694.75
2022-11-23T00:51:46.010Z,99700.73
2022-11-23T00:52:51.073Z,99697.11
2022-11-23T00:54:01.686Z,99705.34
2022-11-23T00:55:06.084Z,99700.58
2022-11-23T00:56:09.428Z,99699.08
2022-11-23T00:57:12.412Z,99705.46
2022-11-23T00:58:14.664Z,99699.99
2022-11-23T00:59:17.217Z,99700.23
2022-11-23T01:00:20.734Z,99698.41
2022-11-23T01:01:25.758Z,99703.64
2022-11-23T01:02:29.347Z,99702.61
2022-11-23T01:03:32.807Z,99706.02
2022-11-23T01:04:39.589Z,99702.28
2022-11-23T01:05:42.949Z,99709.84
2022-11-23T01:06:47.021Z,99706.25
2022-11-23T01:07:53.409Z,99706.25
2022-11-23T01:08:58.518Z,99702.72
2022-11-23T01:10:05.391Z,99702.66
2022-11-23T01:11:12.075Z,99708.93
2022-11-23T01:12:15.374Z,99708.66
2022-11-23T01:13:18.775Z,99707.10
2022-11-23T01:14:22.895Z,99707.95
2022-11-23T01:15:26.088Z,99704.20
2022-11-23T01:16:30.528Z,99711.22
2022-11-23T01:17:32.899Z,99710.24
2022-11-23T01:18:39.226Z,99709.33
2022-11-23T01:19:44.679Z,99716.22
2022-11-23T01:20:48.741Z,99706.70
2022-11-23T01:21:56.621Z,99718.77
2022-11-23T01:23:00.987Z,99716.88
2022-11-23T01:24:08.555Z,99695.56
2022-11-23T01:25:13.091Z,99700.73
2022-11-23T01:26:16.606Z,99706.59
2022-11-23T01:27:20.100Z,99700.50
2022-11-23T01:28:23.302Z,99701.53
2022-11-23T01:29:27.752Z,99699.95
2022-11-23T01:30:32.022Z,99706.83
2022-11-23T01:31:34.530Z,99714.62
2022-11-23T01:32:41.290Z,99708.75
2022-11-23T01:33:44.605Z,99703.23
2022-11-23T01:34:48.083Z,99709.20
2022-11-23T01:35:51.389Z,99718.77
2022-11-23T01:36:53.525Z,99718.50
2022-11-23T01:37:57.146Z,99728.98
2022-11-23T01:39:01.381Z,99727.48
2022-11-23T01:40:05.304Z,99732.45
2022-11-23T01:41:09.748Z,99730.90
2022-11-23T01:42:18.001Z,99726.14
2022-11-23T01:43:21.146Z,99735.64
2022-11-23T01:44:26.429Z,99726.02
2022-11-23T01:45:37.231Z,99724.98
2022-11-23T01:46:40.380Z,99718.95
2022-11-23T01:47:45.785Z,99722.48
2022-11-23T01:48:58.888Z,99719.02
2022-11-23T01:50:02.537Z,99713.66
2022-11-23T01:51:08.407Z,99721.27
2022-11-23T01:52:16.866Z,99721.27
2022-11-23T01:53:24.263Z,99723.89
2022-11-23T01:54:30.287Z,99724.53
2022-11-23T01:55:33.960Z,99721.97
2022-11-23T01:56:39.022Z,99728.28
2022-11-23T01:57:44.093Z,99727.27
2022-11-23T01:58:50.209Z,99723.83
2022-11-23T01:59:55.187Z,99736.78
2022-11-23T02:00:58.929Z,99732.45
2022-11-23T02:02:02.091Z,99738.55
2022-11-23T02:03:06.129Z,99737.69
2022-11-23T02:04:10.983Z,99728.92
2022-11-23T02:05:20.474Z,99731.59
2022-11-23T02:06:25.596Z,99750.51
2022-11-23T02:07:29.583Z,99737.11
2022-11-23T02:08:34.049Z,99740.59
2022-11-23T02:09:39.319Z,99738.82
2022-11-23T02:10:41.505Z,99738.76
2022-11-23T02:11:45.744Z,99739.40
2022-11-23T02:12:50.232Z,99739.67
2022-11-23T02:13:52.554Z,99739.91
2022-11-23T02:14:59.533Z,99738.88
2022-11-23T02:16:03.220Z,99746.41
2022-11-23T02:17:06.206Z,99742.08
2022-11-23T02:18:19.204Z,99745.09
2022-11-23T02:19:35.574Z,99742.53
2022-11-23T02:20:42.275Z,99744.30
2022-11-23T02:21:45.393Z,99745.95
2022-11-23T02:22:50.676Z,99747.59
2022-11-23T02:24:14.870Z,99746.86
2022-11-23T02:25:36.595Z,99749.92
2022-11-23T02:26:40.649Z,99741.22
2022-11-23T02:27:50.759Z,99745.48
2022-11-23T02:28:58.011Z,99748.28
2022-11-23T02:30:02.439Z,99739.80
2022-11-23T02:31:04.720Z,99742.48
2022-11-23T02:32:08.120Z,99744.86
2022-11-23T02:33:11.417Z,99743.72
2022-11-23T02:34:16.590Z,99736.38
2022-11-23T02:35:20.201Z,99741.03
2022-11-23T02:36:27.989Z,99751.19
2022-11-23T02:37:31.213Z,99755.34
2022-11-23T02:38:34.559Z,99751.63
2022-11-23T02:39:38.324Z,99750.39
2022-11-23T02:40:42.618Z,99752.89
2022-11-23T02:41:49.717Z,99746.86
2022-11-23T02:42:54.137Z,99750.09
2022-11-23T02:43:59.281Z,99744.97
2022-11-23T02:45:08.054Z,99744.12
2022-11-23T02:46:15.824Z,99745.77
2022-11-23T02:47:19.442Z,99741.31
2022-11-23T02:48:22.725Z,99746.41
2022-11-23T02:49:26.044Z,99748.97
2022-11-23T02:50:32.555Z,99743.73
2022-11-23T02:51:37.112Z,99744.45
2022-11-23T02:52:40.223Z,99747.99
2022-11-23T02:53:42.869Z,99755.80
2022-11-23T02:54:48.274Z,99754.27
2022-11-23T02:55:51.643Z,99756.09
2022-11-23T02:56:54.939Z,99753.69
2022-11-23T02:58:00.638Z,99749.23
2022-11-23T02:59:09.260Z,99748.33
2022-11-23T03:00:13.926Z,99746.73
2022-11-23T03:01:20.497Z,99750.09
2022-11-23T03:02:26.568Z,99747.66
2022-11-23T03:03:29.654Z,99759.72
2022-11-23T03:04:33.441Z,99764.28
2022-11-23T03:05:36.976Z,99761.05
2022-11-23T03:06:42.373Z,99764.40
2022-11-23T03:07:45.548Z,99763.38
2022-11-23T03:08:49.277Z,99759.95
2022-11-23T03:09:53.096Z,99768.84
2022-11-23T03:10:56.703Z,99770.38
2022-11-23T03:12:00.199Z,99765.88
2022-11-23T03:13:03.600Z,99765.99
2022-11-23T03:14:10.661Z,99763.31
2022-11-23T03:15:15.842Z,99766.78
2022-11-23T03:16:20.381Z,99753.62
2022-11-23T03:17:25.672Z,99757.34
2022-11-23T03:18:30.629Z,99757.22
2022-11-23T03:19:33.958Z,99757.22
2022-11-23T03:20:37.441Z,99760.75
2022-11-23T03:21:41.050Z,99753.56
2022-11-23T03:22:45.686Z,99756.03
2022-11-23T03:23:49.629Z,99758.02
2022-11-23T03:24:53.133Z,99758.02
2022-11-23T03:25:59.278Z,99760.62
2022-11-23T03:27:03.473Z,99757.39
2022-11-23T03:28:08.702Z,99759.95
2022-11-23T03:29:12.166Z,99757.89
2022-11-23T03:30:16.466Z,99753.56
2022-11-23T03:31:20.231Z,99756.36
2022-11-23T03:32:25.281Z,99757.09
2022-11-23T03:33:30.886Z,99760.42
2022-11-23T03:34:36.249Z,99761.16
2022-11-23T03:35:40.210Z,99758.47
2022-11-23T03:36:44.433Z,99749.70
2022-11-23T03:37:47.949Z,99753.23
2022-11-23T03:38:50.593Z,99750.67
2022-11-23T03:40:11.238Z,99742.08
2022-11-23T03:41:32.906Z,99741.31
2022-11-23T03:42:36.412Z,99741.05
2022-11-23T03:43:41.430Z,99744.58
2022-11-23T03:44:45.051Z,99754.89
2022-11-23T03:45:48.219Z,99754.66
2022-11-23T03:46:52.428Z,99751.13
2022-11-23T03:47:55.829Z,99759.95
2022-11-23T03:48:59.540Z,99759.89
2022-11-23T03:50:02.931Z,99749.18
2022-11-23T03:51:10.261Z,99757.95
2022-11-23T03:52:12.962Z,99759.05
2022-11-23T03:53:17.316Z,99756.87
2022-11-23T03:54:22.708Z,99759.28
2022-11-23T03:55:26.619Z,99758.42
2022-11-23T03:56:29.194Z,99760.28
2022-11-23T03:57:33.249Z,99759.28
2022-11-23T03:58:36.985Z,99762.16
2022-11-23T03:59:42.320Z,99766.55
2022-11-23T04:00:47.123Z,99768.05
2022-11-23T04:01:52.748Z,99763.66
2022-11-23T04:02:58.266Z,99764.40
2022-11-23T04:04:03.650Z,99771.11
2022-11-23T04:05:12.065Z,99775.05
2022-11-23T04:06:34.163Z,99772.43
2022-11-23T04:07:42.086Z,99772.98
2022-11-23T04:08:46.081Z,99772.08
2022-11-23T04:09:51.259Z,99772.08
2022-11-23T04:11:03.433Z,99768.61
2022-11-23T04:12:12.785Z,99765.66
2022-11-23T04:13:16.801Z,99767.13
2022-11-23T04:14:20.840Z,99767.13
2022-11-23T04:15:24.972Z,99766.52
2022-11-23T04:16:29.001Z,99770.31
2022-11-23T04:17:32.598Z,99765.08
2022-11-23T04:18:34.954Z,99760.42
2022-11-23T04:19:38.270Z,99763.55
2022-11-23T04:20:42.160Z,99762.11
2022-11-23T04:21:45.753Z,99769.52
2022-11-23T04:22:49.703Z,99759.72
2022-11-23T04:23:53.359Z,99760.87
2022-11-23T04:25:01.113Z,99759.05
2022-11-23T04:26:04.826Z,99763.19
2022-11-23T04:27:08.737Z,99757.39
2022-11-23T04:28:14.300Z,99760.62
2022-11-23T04:29:18.703Z,99770.44
2022-11-23T04:30:23.954Z,99772.94
2022-11-23T04:31:29.964Z,99770.14
2022-11-23T04:32:47.003Z,99768.22
2022-11-23T04:33:49.519Z,99772.81
2022-11-23T04:34:53.848Z,99778.12
2022-11-23T04:35:58.935Z,99779.77
2022-11-23T04:37:05.992Z,99778.29
2022-11-23T04:38:13.741Z,99775.44
2022-11-23T04:39:18.435Z,99778.62
2022-11-23T04:40:32.587Z,99783.41
2022-11-23T04:41:37.974Z,99778.06
2022-11-23T04:42:41.582Z,99775.23
2022-11-23T04:43:47.582Z,99773.28
2022-11-23T04:44:52.040Z,99779.20
2022-11-23T04:45:55.967Z,99774.93
2022-11-23T04:47:01.127Z,99780.05
2022-11-23T04:48:04.528Z,99771.27
2022-11-23T04:49:10.996Z,99775.72
2022-11-23T04:50:14.566Z,99779.31
2022-11-23T04:51:19.126Z,99782.79
2022-11-23T04:52:24.186Z,99775.72
2022-11-23T04:53:27.484Z,99780.84
2022-11-23T04:54:32.881Z,99781.55
2022-11-23T04:55:38.055Z,99784.44
2022-11-23T04:56:41.561Z,99785.47
2022-11-23T04:57:45.054Z,99786.38
2022-11-23T04:58:48.067Z,99777.55
2022-11-23T04:59:50.916Z,99784.67
2022-11-23T05:00:54.434Z,99776.14
2022-11-23T05:01:58.078Z,99778.85
2022-11-23T05:03:06.079Z,99780.47
2022-11-23T05:04:16.279Z,99779.61
2022-11-23T05:05:16.530Z,99781.27
2022-11-23T05:06:21.879Z,99790.72
2022-11-23T05:07:25.720Z,99781.08
2022-11-23T05:08:31.667Z,99787.30
2022-11-23T05:09:38.868Z,99791.56
2022-11-23T05:10:51.501Z,99785.23
2022-11-23T05:11:56.453Z,99792.54
2022-11-23T05:13:00.550Z,99796.13
2022-11-23T05:14:05.895Z,99792.42
2022-11-23T05:15:11.200Z,99797.48
2022-11-23T05:16:17.595Z,99789.63
2022-11-23T05:17:20.772Z,99794.01
2022-11-23T05:18:23.620Z,99795.83
2022-11-23T05:19:27.713Z,99800.01
2022-11-23T05:20:31.082Z,99791.45
2022-11-23T05:21:34.335Z,99801.81
2022-11-23T05:22:37.765Z,99796.41
2022-11-23T05:23:42.882Z,99800.86
2022-11-23T05:24:46.167Z,99795.63
2022-11-23T05:25:52.438Z,99805.52
2022-11-23T05:26:56.469Z,99805.41
2022-11-23T05:28:11.405Z,99801.81
2022-11-23T05:29:06.455Z,99805.13
2022-11-23T05:30:12.259Z,99812.88
2022-11-23T05:31:14.756Z,99811.28
2022-11-23T05:32:19.040Z,99801.93
2022-11-23T05:33:22.614Z,99812.35
2022-11-23T05:34:25.497Z,99809.00
2022-11-23T05:35:29.367Z,99805.25
2022-11-23T05:36:32.729Z,99805.92
2022-11-23T05:37:36.205Z,99804.55
2022-11-23T05:38:41.809Z,99805.46
2022-11-23T05:39:53.659Z,99811.73
2022-11-23T05:40:57.478Z,99805.52
2022-11-23T05:42:03.566Z,99809.67
2022-11-23T05:43:08.211Z,99812.30
2022-11-23T05:44:12.598Z,99818.35
2022-11-23T05:45:16.016Z,99813.73
2022-11-23T05:46:21.385Z,99815.31
2022-11-23T05:47:24.367Z,99818.06
2022-11-23T05:48:31.736Z,99817.27
2022-11-23T05:49:35.392Z,99817.38
2022-11-23T05:50:39.790Z,99805.81
2022-11-23T05:52:02.618Z,99813.67
2022-11-23T05:53:06.322Z,99825.13
2022-11-23T05:54:10.154Z,99818.06
2022-11-23T05:55:22.863Z,99820.50
2022-11-23T05:56:25.088Z,99826.45
2022-11-23T05:57:37.680Z,99824.49
2022-11-23T05:58:40.669Z,99820.23
2022-11-23T05:59:44.462Z,99822.84
2022-11-23T06:00:49.878Z,99824.49
2022-11-23T06:01:53.803Z,99832.63
2022-11-23T06:03:02.135Z,99818.45
2022-11-23T06:04:06.483Z,99827.97
2022-11-23T06:05:12.785Z,99830.41
2022-11-23T06:06:21.543Z,99833.34
2022-11-23T06:07:25.109Z,99836.81
2022-11-23T06:08:44.532Z,99835.89
2022-11-23T06:09:48.630Z,99843.97
2022-11-23T06:10:52.748Z,99836.75
2022-11-23T06:11:55.635Z,99845.73
2022-11-23T06:13:05.616Z,99840.00
2022-11-23T06:14:14.181Z,99852.02
2022-11-23T06:15:16.225Z,99844.80
2022-11-23T06:16:22.565Z,99841.87
2022-11-23T06:17:27.811Z,99846.44
2022-11-23T06:18:35.909Z,99842.73
2022-11-23T06:19:41.164Z,99850.19
2022-11-23T06:20:44.554Z,99835.67
2022-11-23T06:21:50.694Z,99844.20
2022-11-23T06:22:56.264Z,99836.67
2022-11-23T06:24:00.719Z,99840.67
2022-11-23T06:25:07.871Z,99841.80
2022-11-23T06:26:16.400Z,99843.23
2022-11-23T06:27:20.015Z,99846.66
2022-11-23T06:28:25.947Z,99849.45
2022-11-23T06:29:30.103Z,99847.51
2022-11-23T06:30:33.855Z,99847.09
2022-11-23T06:31:38.757Z,99856.14
2022-11-23T06:32:44.117Z,99847.69
2022-11-23T06:33:47.621Z,99849.45
2022-11-23T06:34:53.852Z,99848.09
2022-11-23T06:35:59.631Z,99855.02
2022-11-23T06:37:05.654Z,99853.41
2022-11-23T06:38:13.003Z,99857.11
2022-11-23T06:39:17.144Z,99850.63
2022-11-23T06:40:20.452Z,99857.80
2022-11-23T06:41:27.012Z,99852.12
2022-11-23T06:42:38.987Z,99859.13
2022-11-23T06:43:34.851Z,99854.52
2022-11-23T06:44:40.498Z,99856.64
2022-11-23T06:45:44.022Z,99863.12
2022-11-23T06:46:50.244Z,99857.31
2022-11-23T06:47:55.511Z,99852.98
2022-11-23T06:48:59.041Z,99858.73
2022-11-23T06:50:02.858Z,99849.89
2022-11-23T06:51:06.999Z,99857.20
2022-11-23T06:52:12.861Z,99864.46
2022-11-23T06:53:19.251Z,99867.14
2022-11-23T06:54:27.555Z,99855.01
2022-11-23T06:55:31.760Z,99862.75
2022-11-23T06:56:38.089Z,99866.82
2022-11-23T06:57:41.494Z,99866.38
2022-11-23T06:58:45.615Z,99861.14
2022-11-23T06:59:50.802Z,99855.84
2022-11-23T07:00:59.041Z,99862.67
2022-11-23T07:02:03.367Z,99866.82
2022-11-23T07:03:11.370Z,99870.67
2022-11-23T07:04:17.882Z,99864.69
2022-11-23T07:05:24.233Z,99864.13
2022-11-23T07:06:31.097Z,99867.42
2022-11-23T07:07:36.789Z,99863.04
2022-11-23T07:08:44.228Z,99861.33
2022-11-23T07:10:06.625Z,99855.80
2022-11-23T07:11:10.409Z,99856.22
2022-11-23T07:12:13.736Z,99864.88
2022-11-23T07:13:18.412Z,99864.70
2022-11-23T07:14:23.478Z,99862.44
2022-11-23T07:15:29.924Z,99862.55
2022-11-23T07:16:33.293Z,99865.05
2022-11-23T07:17:42.438Z,99857.93
2022-11-23T07:18:46.377Z,99860.98
2022-11-23T07:19:49.694Z,99873.09
2022-11-23T07:20:52.993Z,99863.34
2022-11-23T07:21:57.725Z,99869.24
2022-11-23T07:23:07.813Z,99871.01
2022-11-23T07:24:12.889Z,99861.70
2022-11-23T07:25:19.401Z,99863.29
2022-11-23T07:26:22.923Z,99863.85
2022-11-23T07:27:26.739Z,99866.03
2022-11-23T07:28:31.185Z,99879.08
2022-11-23T07:29:35.840Z,99861.41
2022-11-23T07:30:39.746Z,99869.76
2022-11-23T07:31:42.117Z,99868.47
2022-11-23T07:32:45.399Z,99884.80
2022-11-23T07:33:51.410Z,99889.92
2022-11-23T07:34:56.076Z,99885.16
2022-11-23T07:36:01.464Z,99889.41
2022-11-23T07:37:05.809Z,99882.40
2022-11-23T07:38:10.040Z,99884.58
2022-11-23T07:39:14.949Z,99887.69
2022-11-23T07:40:19.991Z,99889.98
2022-11-23T07:41:23.121Z,99889.86
2022-11-23T07:42:45.224Z,99895.33
2022-11-23T07:43:48.978Z,99890.52
2022-11-23T07:44:52.799Z,99886.50
2022-11-23T07:45:59.332Z,99893.34
2022-11-23T07:47:03.605Z,99888.16
2022-11-23T07:48:07.687Z,99894.14
2022-11-23T07:49:10.159Z,99889.08
2022-11-23T07:50:14.379Z,99895.37
2022-11-23T07:51:20.594Z,99896.13
2022-11-23T07:52:24.225Z,99902.34
2022-11-23T07:53:27.730Z,99892.43
2022-11-23T07:54:31.548Z,99899.77
2022-11-23T07:55:35.249Z,99902.59
2022-11-23T07:56:38.856Z,99895.96
2022-11-23T07:57:41.408Z,99907.23
2022-11-23T07:58:43.898Z,99908.31
2022-11-23T07:59:47.505Z,99909.23
2022-11-23T08:00:51.442Z,99906.00
2022-11-23T08:01:58.340Z,99908.27
2022-11-23T08:04:05.494Z,99902.31
2022-11-23T08:05:14.258Z,99910.55
2022-11-23T08:06:16.475Z,99904.24
2022-11-23T08:07:23.871Z,99899.34
2022-11-23T08:08:27.440Z,99911.74
2022-11-23T08:09:30.807Z,99906.45
2022-11-23T08:10:36.634Z,99906.34
2022-11-23T08:11:40.425Z,99904.30
2022-11-23T08:12:43.875Z,99911.19
2022-11-23T08:13:46.949Z,99909.65
2022-11-23T08:14:51.798Z,99918.58
2022-11-23T08:15:55.791Z,99916.59
2022-11-23T08:17:02.908Z,99915.89
2022-11-23T08:18:06.624Z,99911.08
2022-11-23T08:19:08.979Z,99915.89
2022-11-23T08:20:12.470Z,99926.88
2022-11-23T08:21:15.883Z,99930.94
2022-11-23T08:22:18.348Z,99922.07
2022-11-23T08:23:23.196Z,99928.42
2022-11-23T08:24:27.256Z,99934.73
2022-11-23T08:25:30.870Z,99926.33
2022-11-23T08:26:34.603Z,99926.73
2022-11-23T08:27:37.436Z,99919.05
2022-11-23T08:28:40.656Z,99923.98
2022-11-23T08:29:44.342Z,99929.36
2022-11-23T08:30:51.070Z,99928.04
2022-11-23T08:31:56.782Z,99930.94
2022-11-23T08:33:01.018Z,99931.55
2022-11-23T08:34:04.419Z,99933.84
2022-11-23T08:35:07.178Z,99925.36
2022-11-23T08:36:11.675Z,99919.13
2022-11-23T08:37:15.247Z,99923.02
2022-11-23T08:38:19.400Z,99918.00
2022-11-23T08:39:21.736Z,99918.69
2022-11-23T08:40:26.767Z,99914.90
2022-11-23T08:41:30.729Z,99920.62
2022-11-23T08:42:35.385Z,99923.55
2022-11-23T08:43:38.787Z,99930.24
2022-11-23T08:44:42.484Z,99925.31
2022-11-23T08:45:46.734Z,99930.61
2022-11-23T08:46:52.249Z,99920.62
2022-11-23T08:48:01.219Z,99919.08
2022-11-23T08:49:04.771Z,99925.35
2022-11-23T08:50:08.639Z,99918.06
2022-11-23T08:51:12.510Z,99916.70
2022-11-23T08:52:15.389Z,99916.18
2022-11-23T08:53:20.512Z,99913.12
2022-11-23T08:54:24.907Z,99908.48
2022-11-23T08:55:28.993Z,99907.35
2022-11-23T08:56:33.292Z,99907.52
2022-11-23T08:57:35.838Z,99900.08
2022-11-23T08:58:39.118Z,99905.12
2022-11-23T08:59:42.505Z,99904.63
2022-11-23T09:00:46.039Z,99905.44
2022-11-23T09:01:50.767Z,99912.97
2022-11-23T09:02:54.197Z,99912.16
2022-11-23T09:03:57.375Z,99911.80
2022-11-23T09:05:01.423Z,99920.45
2022-11-23T09:06:07.859Z,99910.48
2022-11-23T09:07:11.625Z,99913.56
2022-11-23T09:08:15.953Z,99915.70
2022-11-23T09:09:19.512Z,99913.45
2022-11-23T09:10:22.284Z,99905.53
2022-11-23T09:11:25.894Z,99910.52
2022-11-23T09:12:29.175Z,99903.13
2022-11-23T09:13:36.350Z,99909.17
2022-11-23T09:14:39.717Z,99911.48
2022-11-23T09:15:42.003Z,99905.22
2022-11-23T09:16:45.341Z,99899.75
2022-11-23T09:17:49.443Z,99902.59
2022-11-23T09:18:56.576Z,99902.16
2022-11-23T09:20:00.328Z,99897.09
2022-11-23T09:21:03.982Z,99891.74
2022-11-23T09:22:07.404Z,99886.24
2022-11-23T09:23:14.412Z,99887.84
2022-11-23T09:24:17.632Z,99886.73
2022-11-23T09:25:22.574Z,99882.17
2022-11-23T09:26:26.438Z,99877.41
2022-11-23T09:27:29.162Z,99873.41
2022-11-23T09:28:33.362Z,99868.59
2022-11-23T09:29:36.761Z,99876.39
2022-11-23T09:30:39.100Z,99879.72
2022-11-23T09:31:41.978Z,99883.03
2022-11-23T09:32:45.379Z,99879.44
2022-11-23T09:33:48.526Z,99878.07
2022-11-23T09:34:51.448Z,99879.92
2022-11-23T09:35:57.655Z,99883.62
2022-11-23T09:37:01.070Z,99884.63
2022-11-23T09:38:04.068Z,99892.97
2022-11-23T09:39:07.374Z,99883.05
2022-11-23T09:40:12.054Z,99879.43
2022-11-23T09:41:25.638Z,99875.19
2022-11-23T09:42:33.844Z,99871.72
2022-11-23T09:43:43.111Z,99879.87
2022-11-23T09:44:51.716Z,99882.34
2022-11-23T09:45:57.641Z,99872.92
2022-11-23T09:47:08.127Z,99878.23
2022-11-23T09:48:16.359Z,99878.78
2022-11-23T09:49:20.900Z,99880.28
2022-11-23T09:50:26.492Z,99885.22
2022-11-23T09:51:28.623Z,99872.86
2022-11-23T09:52:32.351Z,99876.39
2022-11-23T09:53:43.522Z,99873.42
2022-11-23T09:54:48.332Z,99880.09
2022-11-23T09:55:53.450Z,99882.23
2022-11-23T09:57:01.552Z,99869.76
2022-11-23T09:58:14.399Z,99865.80
2022-11-23T09:59:20.838Z,99868.70
2022-11-23T10:00:24.774Z,99863.72
2022-11-23T10:01:27.432Z,99866.70
2022-11-23T10:02:32.781Z,99856.70
2022-11-23T10:03:45.337Z,99854.75
2022-11-23T10:04:45.488Z,99853.11
2022-11-23T10:05:50.849Z,99855.38
2022-11-23T10:06:58.912Z,99861.22
2022-11-23T10:08:05.902Z,99852.50
2022-11-23T10:09:11.305Z,99856.20
2022-11-23T10:10:20.577Z,99854.64
2022-11-23T10:11:25.687Z,99847.89
2022-11-23T10:12:29.920Z,99851.78
2022-11-23T10:13:39.527Z,99844.83
2022-11-23T10:14:52.112Z,99840.88
2022-11-23T10:15:58.131Z,99839.77
2022-11-23T10:17:03.411Z,99844.20
2022-11-23T10:18:18.181Z,99842.09
2022-11-23T10:19:24.403Z,99843.36
